Time;durP1;ratioP1;P1;durP2;ratioP2;P2;SDS_P1;SDS_P2;PMS_P1;PMS_P2;Temp;Humidity;BMP_temperature;BMP_pressure;BME280_temperature;BME280_humidity;BME280_pressure;Samples;Min_cycle;Max_cycle;Signal;HPM_P1;HPM_P2
2022/10/30 00:00:18;;;;;;;18.93;12.20;;;14.20;99.90;;;;;;10386583;28;20263;-71
2022/10/30 00:05:20;;;;;;;16.00;12.30;;;14.10;99.90;;;;;;10394783;28;20248;-71
2022/10/30 00:10:20;;;;;;;19.13;12.57;;;14.00;99.90;;;;;;10389884;28;20201;-71
2022/10/30 00:15:21;;;;;;;18.33;12.00;;;13.90;99.90;;;;;;10395920;28;20692;-71
2022/10/30 00:20:21;;;;;;;18.80;12.13;;;13.80;99.90;;;;;;10432731;28;20265;-71
2022/10/30 00:25:25;;;;;;;20.00;11.57;;;13.70;99.90;;;;;;10388926;28;20263;-71
2022/10/30 00:30:25;;;;;;;20.80;11.50;;;13.60;99.90;;;;;;10391270;28;20224;-72
2022/10/30 00:35:26;;;;;;;22.30;12.00;;;13.60;99.90;;;;;;10390425;28;20220;-71
2022/10/30 00:40:26;;;;;;;18.27;11.73;;;13.50;99.90;;;;;;10429810;28;20270;-71
2022/10/30 00:45:27;;;;;;;14.30;11.50;;;13.50;99.90;;;;;;10387875;28;20221;-71
2022/10/30 00:50:35;;;;;;;15.23;11.93;;;13.40;99.90;;;;;;10390750;28;20308;-72
2022/10/30 00:55:44;;;;;;;21.80;11.73;;;13.40;99.90;;;;;;10385858;28;20768;-72
2022/10/30 01:00:49;;;;;;;15.53;11.50;;;13.50;99.90;;;;;;10390915;28;20594;-72
2022/10/30 01:05:55;;;;;;;17.97;11.87;;;13.50;99.90;;;;;;10392242;28;20707;-72
2022/10/30 01:10:58;;;;;;;20.40;11.03;;;13.60;99.90;;;;;;10383818;28;20224;-73
2022/10/30 01:16:27;;;;;;;14.77;10.30;;;13.60;99.90;;;;;;10385137;28;20726;-72
2022/10/30 01:21:41;;;;;;;15.90;10.63;;;13.60;99.90;;;;;;10388944;28;20235;-72
2022/10/30 01:26:51;;;;;;;16.57;11.13;;;13.60;99.90;;;;;;10383994;28;20248;-72
2022/10/30 01:32:34;;;;;;;17.83;10.30;;;13.50;99.90;;;;;;10383653;28;20256;-72
2022/10/30 01:37:58;;;;;;;18.17;11.20;;;13.40;99.90;;;;;;10389198;28;20227;-73
2022/10/30 01:42:59;;;;;;;18.57;11.07;;;13.40;99.90;;;;;;10394751;28;20270;-73
2022/10/30 01:48:30;;;;;;;15.73;10.73;;;13.30;99.90;;;;;;10382562;28;20270;-70
2022/10/30 01:53:52;;;;;;;15.50;11.10;;;13.30;99.90;;;;;;10388187;28;20219;-72
2022/10/30 01:59:20;;;;;;;17.60;10.70;;;13.20;99.90;;;;;;10382963;28;20602;-71
2022/10/30 02:04:21;;;;;;;16.93;10.10;;;13.10;99.90;;;;;;10389017;28;20711;-72
2022/10/30 02:09:21;;;;;;;16.30;10.40;;;13.00;99.90;;;;;;10404911;28;20454;-72
2022/10/30 02:14:33;;;;;;;16.70;11.30;;;13.00;99.90;;;;;;10389730;28;20251;-72
2022/10/30 02:19:34;;;;;;;16.90;10.37;;;13.00;99.90;;;;;;10384073;28;20296;-71
2022/10/30 02:24:34;;;;;;;16.57;10.57;;;13.00;99.90;;;;;;10388274;28;20231;-72
2022/10/30 02:29:35;;;;;;;12.03;10.63;;;13.00;99.90;;;;;;10383554;28;20304;-72
2022/10/30 02:34:36;;;;;;;16.97;11.37;;;13.00;99.90;;;;;;10381677;28;20220;-72
2022/10/30 02:39:36;;;;;;;14.97;10.23;;;13.00;99.90;;;;;;10387390;28;20220;-73
2022/10/30 02:44:39;;;;;;;14.17;9.40;;;13.00;99.90;;;;;;10389395;28;20731;-73
2022/10/30 02:49:40;;;;;;;14.20;9.70;;;13.10;99.90;;;;;;10382156;28;20218;-72
2022/10/30 02:54:41;;;;;;;14.07;9.53;;;13.10;99.90;;;;;;10388273;28;20940;-73
2022/10/30 02:59:41;;;;;;;12.10;8.93;;;13.10;99.90;;;;;;10382005;28;20213;-72
2022/10/30 03:04:42;;;;;;;13.03;8.87;;;13.20;99.90;;;;;;10388235;28;20217;-73
2022/10/30 03:09:42;;;;;;;14.97;9.10;;;13.20;99.90;;;;;;10379948;28;20225;-72
2022/10/30 03:14:43;;;;;;;14.63;8.93;;;13.30;99.90;;;;;;10387777;28;20761;-72
2022/10/30 03:19:43;;;;;;;15.10;9.40;;;13.30;99.90;;;;;;10429922;28;20216;-71
2022/10/30 03:24:44;;;;;;;13.10;8.30;;;13.40;99.90;;;;;;10436717;28;20236;-71
2022/10/30 03:29:45;;;;;;;13.00;8.93;;;13.50;99.90;;;;;;10390729;28;20899;-71
2022/10/30 03:34:45;;;;;;;10.63;8.23;;;13.50;99.90;;;;;;10401867;28;20694;-71
2022/10/30 03:39:46;;;;;;;11.23;8.20;;;13.60;99.90;;;;;;10434325;28;20832;-71
2022/10/30 03:44:46;;;;;;;13.83;9.03;;;13.50;99.90;;;;;;10435263;28;20216;-71
2022/10/30 03:49:47;;;;;;;14.27;8.50;;;13.50;99.90;;;;;;10389889;28;20228;-72
2022/10/30 03:54:47;;;;;;;14.70;8.43;;;13.50;99.90;;;;;;10393429;28;20220;-71
2022/10/30 03:59:48;;;;;;;13.77;8.40;;;13.50;99.90;;;;;;10387042;28;20600;-71
2022/10/30 04:04:48;;;;;;;10.57;7.57;;;13.50;99.90;;;;;;10393206;28;20274;-71
2022/10/30 04:09:49;;;;;;;13.83;8.37;;;13.40;99.90;;;;;;10394462;28;20231;-72
2022/10/30 04:14:49;;;;;;;11.17;8.03;;;13.40;99.90;;;;;;10391718;28;20209;-72
2022/10/30 04:19:50;;;;;;;12.70;7.90;;;13.40;99.90;;;;;;10392406;28;20303;-70
2022/10/30 04:24:52;;;;;;;16.33;8.10;;;13.40;99.90;;;;;;10386209;28;20306;-72
2022/10/30 04:29:52;;;;;;;12.30;7.93;;;13.30;99.90;;;;;;10392412;28;20757;-72
2022/10/30 04:34:53;;;;;;;13.57;7.77;;;13.30;99.90;;;;;;10393178;28;20263;-72
2022/10/30 04:39:53;;;;;;;16.97;8.77;;;13.20;99.90;;;;;;10386115;28;20941;-72
2022/10/30 04:44:57;;;;;;;10.70;7.43;;;13.20;99.90;;;;;;10392125;28;20220;-72
2022/10/30 04:49:58;;;;;;;13.97;8.63;;;13.10;99.90;;;;;;10386331;28;20263;-72
2022/10/30 04:54:58;;;;;;;12.37;8.63;;;13.00;99.90;;;;;;10389540;28;20217;-72
2022/10/30 04:59:59;;;;;;;12.07;8.37;;;12.90;99.90;;;;;;10386005;28;20276;-72
2022/10/30 05:04:59;;;;;;;12.13;8.13;;;12.80;99.90;;;;;;10392251;28;20330;-72
2022/10/30 05:10:00;;;;;;;12.53;8.43;;;12.80;99.90;;;;;;10391079;28;20221;-72
2022/10/30 05:15:01;;;;;;;12.43;8.43;;;12.80;99.90;;;;;;10390546;28;20312;-72
2022/10/30 05:20:01;;;;;;;15.43;8.70;;;12.70;99.90;;;;;;10385914;28;20236;-72
2022/10/30 05:25:02;;;;;;;10.23;7.90;;;12.60;99.90;;;;;;10391793;28;20250;-72
2022/10/30 05:30:03;;;;;;;12.23;8.67;;;12.50;99.90;;;;;;10389991;28;20687;-72
2022/10/30 05:35:04;;;;;;;10.93;8.00;;;12.40;99.90;;;;;;10397895;28;20213;-71
2022/10/30 05:40:05;;;;;;;13.00;8.87;;;12.40;99.90;;;;;;10388127;28;20225;-71
2022/10/30 05:45:06;;;;;;;14.50;8.77;;;12.40;99.90;;;;;;10381238;28;20189;-72
2022/10/30 05:50:07;;;;;;;15.47;8.20;;;12.30;99.90;;;;;;10384167;28;20280;-72
2022/10/30 05:55:08;;;;;;;14.50;8.03;;;12.30;99.90;;;;;;10386555;28;20653;-71
2022/10/30 06:00:10;;;;;;;9.37;7.20;;;12.30;99.90;;;;;;10384921;28;20294;-72
2022/10/30 06:05:10;;;;;;;11.63;7.87;;;12.20;99.90;;;;;;10392258;28;20172;-71
2022/10/30 06:10:11;;;;;;;11.37;7.27;;;12.20;99.90;;;;;;10386904;28;20204;-71
2022/10/30 06:15:11;;;;;;;11.23;7.60;;;12.20;99.90;;;;;;10392963;28;20189;-71
2022/10/30 06:20:12;;;;;;;9.10;6.97;;;12.20;99.90;;;;;;10384664;28;20663;-71
2022/10/30 06:25:13;;;;;;;11.17;7.30;;;12.10;99.90;;;;;;10388998;28;20814;-72
2022/10/30 06:30:13;;;;;;;9.93;7.40;;;12.20;99.90;;;;;;10388948;28;20194;-72
2022/10/30 06:35:17;;;;;;;11.53;8.17;;;12.20;99.90;;;;;;10385508;28;20181;-72
2022/10/30 06:40:17;;;;;;;16.70;8.70;;;12.20;99.90;;;;;;10392058;28;20219;-72
2022/10/30 06:45:20;;;;;;;8.93;7.20;;;12.30;99.90;;;;;;10384826;28;20208;-72
2022/10/30 06:50:22;;;;;;;9.23;7.03;;;12.40;99.90;;;;;;10385664;28;20672;-72
2022/10/30 06:55:26;;;;;;;13.63;8.47;;;12.60;99.90;;;;;;10390810;28;20221;-71
2022/10/30 07:00:27;;;;;;;12.43;7.17;;;13.00;99.90;;;;;;10396960;28;20336;-72
2022/10/30 07:05:28;;;;;;;9.30;6.73;;;13.70;99.90;;;;;;10394250;28;20220;-71
2022/10/30 07:10:28;;;;;;;13.43;6.33;;;14.40;99.90;;;;;;10390974;28;20259;-72
2022/10/30 07:15:29;;;;;;;13.07;6.80;;;15.40;99.90;;;;;;10393711;28;20295;-72
2022/10/30 07:20:32;;;;;;;9.67;6.27;;;16.10;99.90;;;;;;10390488;28;20225;-71
2022/10/30 07:25:33;;;;;;;8.80;5.47;;;16.40;99.90;;;;;;10395860;28;20656;-71
2022/10/30 07:30:33;;;;;;;10.87;6.30;;;16.60;99.90;;;;;;10389546;28;20241;-72
2022/10/30 07:35:35;;;;;;;10.77;6.07;;;16.60;99.90;;;;;;10402337;28;20690;-72
2022/10/30 07:40:36;;;;;;;10.10;5.87;;;17.00;99.90;;;;;;10393709;28;20283;-72
2022/10/30 07:45:37;;;;;;;9.63;5.40;;;18.90;99.90;;;;;;10385316;28;20247;-72
2022/10/30 07:50:37;;;;;;;12.27;6.37;;;21.40;99.90;;;;;;10386785;28;20224;-73
2022/10/30 07:55:38;;;;;;;14.07;6.30;;;23.50;99.90;;;;;;10388049;28;20312;-73
2022/10/30 08:00:38;;;;;;;11.00;5.43;;;25.30;99.90;;;;;;10393122;28;20231;-72
2022/10/30 08:05:42;;;;;;;14.53;5.83;;;26.60;99.90;;;;;;10385034;28;20303;-72
2022/10/30 08:10:42;;;;;;;13.27;6.77;;;27.80;97.60;;;;;;10399682;28;20239;-72
2022/10/30 08:15:43;;;;;;;13.20;6.97;;;28.60;94.30;;;;;;10387850;28;20569;-71
2022/10/30 08:20:49;;;;;;;13.43;7.77;;;29.00;91.80;;;;;;10393480;28;20244;-72
2022/10/30 08:25:49;;;;;;;20.23;7.97;;;28.40;90.60;;;;;;10393562;28;20238;-73
2022/10/30 08:30:51;;;;;;;9.13;6.73;;;28.00;91.20;;;;;;10393595;28;20224;-73
2022/10/30 08:35:55;;;;;;;15.00;7.13;;;28.50;91.10;;;;;;10385777;28;20247;-73
2022/10/30 08:40:56;;;;;;;13.13;6.73;;;30.10;85.20;;;;;;10391082;28;20223;-72
2022/10/30 08:45:57;;;;;;;11.77;7.10;;;30.70;80.00;;;;;;10386047;28;20304;-72
2022/10/30 08:51:01;;;;;;;16.37;7.30;;;30.40;77.50;;;;;;10391633;28;20216;-72
2022/10/30 08:56:02;;;;;;;18.90;7.63;;;30.50;76.10;;;;;;10392420;28;20267;-73
2022/10/30 09:01:02;;;;;;;15.70;6.33;;;30.90;74.30;;;;;;10385867;28;20255;-72
2022/10/30 09:06:06;;;;;;;16.90;7.20;;;31.80;71.10;;;;;;10388464;28;20274;-72
2022/10/30 09:11:07;;;;;;;14.83;7.40;;;33.20;64.90;;;;;;10385766;28;20992;-73
2022/10/30 09:16:07;;;;;;;14.30;6.20;;;34.40;58.70;;;;;;10387293;28;20259;-72
2022/10/30 09:21:09;;;;;;;14.30;6.50;;;35.70;55.40;;;;;;10386046;28;20231;-73
2022/10/30 09:26:10;;;;;;;15.17;6.27;;;36.60;52.20;;;;;;10386964;28;20224;-72
2022/10/30 09:31:11;;;;;;;13.47;6.10;;;36.90;50.00;;;;;;10388371;28;20222;-73
2022/10/30 09:36:11;;;;;;;15.70;6.40;;;37.20;48.50;;;;;;10386322;28;20234;-72
2022/10/30 09:41:42;;;;;;;12.13;6.67;;;36.50;48.10;;;;;;10393659;28;20230;-71
2022/10/30 09:46:48;;;;;;;20.63;7.03;;;37.10;47.20;;;;;;10383174;28;20233;-72
2022/10/30 09:52:12;;;;;;;11.80;6.07;;;38.40;45.00;;;;;;10381584;28;20243;-72
2022/10/30 09:57:34;;;;;;;11.57;6.57;;;38.70;43.30;;;;;;10387300;28;20228;-74
2022/10/30 10:03:00;;;;;;;18.50;8.80;;;39.40;42.20;;;;;;10388271;28;20219;-71
2022/10/30 10:08:09;;;;;;;12.50;5.83;;;38.70;41.50;;;;;;10384388;28;20283;-73
2022/10/30 10:13:33;;;;;;;13.30;5.27;;;36.90;43.80;;;;;;10411218;28;20251;-72
2022/10/30 10:18:44;;;;;;;16.27;5.57;;;35.90;46.00;;;;;;10404221;28;20246;-72
2022/10/30 10:23:55;;;;;;;13.33;6.17;;;36.20;46.20;;;;;;10394804;28;20912;-71
2022/10/30 10:29:03;;;;;;;19.07;6.70;;;36.50;46.20;;;;;;10388813;28;20226;-72
2022/10/30 10:34:42;;;;;;;16.83;6.23;;;36.70;45.80;;;;;;10400821;28;20246;-72
2022/10/30 10:40:10;;;;;;;10.90;6.00;;;37.20;45.30;;;;;;10454999;28;20716;-71
2022/10/30 10:45:32;;;;;;;14.70;6.27;;;38.20;44.60;;;;;;10403030;28;20215;-73
2022/10/30 10:50:46;;;;;;;12.67;5.90;;;37.30;45.40;;;;;;10433760;28;20215;-72
2022/10/30 10:55:51;;;;;;;12.20;5.23;;;38.10;43.80;;;;;;10402240;28;20250;-72
2022/10/30 11:00:54;;;;;;;11.30;5.33;;;38.10;43.80;;;;;;10402656;28;20232;-72
2022/10/30 11:06:03;;;;;;;13.40;6.20;;;37.80;44.10;;;;;;10394045;28;20721;-73
2022/10/30 11:11:05;;;;;;;12.17;6.07;;;34.80;46.30;;;;;;10395831;28;20291;-73
2022/10/30 11:16:37;;;;;;;11.20;5.30;;;31.00;53.30;;;;;;10399494;28;20221;-73
2022/10/30 11:21:43;;;;;;;10.77;5.50;;;28.40;58.90;;;;;;10393467;28;20238;-72
2022/10/30 11:26:44;;;;;;;15.23;6.13;;;26.50;64.80;;;;;;10402019;28;20681;-72
2022/10/30 11:31:46;;;;;;;11.70;5.77;;;25.50;66.60;;;;;;10400240;28;20239;-72
2022/10/30 11:36:53;;;;;;;11.33;4.93;;;24.70;69.60;;;;;;10423489;28;20229;-72
2022/10/30 11:42:01;;;;;;;25.53;6.17;;;24.20;73.60;;;;;;10428611;28;20319;-72
2022/10/30 11:47:03;;;;;;;13.60;5.93;;;23.80;77.00;;;;;;10417631;28;20684;-72
2022/10/30 11:52:05;;;;;;;13.70;5.93;;;23.50;80.20;;;;;;10389168;28;20233;-72
2022/10/30 11:57:36;;;;;;;13.10;5.37;;;23.30;83.30;;;;;;10411680;28;20212;-73
2022/10/30 12:02:42;;;;;;;17.10;6.67;;;23.20;85.70;;;;;;10412803;28;20738;-73
2022/10/30 12:07:42;;;;;;;13.83;6.93;;;23.20;89.30;;;;;;10390249;28;20224;-73
2022/10/30 12:12:43;;;;;;;12.70;6.50;;;23.20;90.70;;;;;;10399901;28;20302;-73
2022/10/30 12:17:57;;;;;;;17.27;6.70;;;23.20;91.30;;;;;;10393655;28;20903;-73
2022/10/30 12:23:19;;;;;;;12.73;6.23;;;23.00;92.40;;;;;;10385454;28;20587;-73
2022/10/30 12:28:26;;;;;;;22.53;6.77;;;22.90;93.70;;;;;;10392052;28;20218;-73
2022/10/30 12:33:44;;;;;;;13.67;6.67;;;22.70;95.50;;;;;;10388164;28;20224;-73
2022/10/30 12:38:58;;;;;;;13.03;6.27;;;22.70;96.90;;;;;;10392498;28;20273;-72
2022/10/30 12:44:10;;;;;;;12.20;5.87;;;22.70;98.10;;;;;;10385756;28;20769;-72
2022/10/30 12:49:19;;;;;;;12.53;5.63;;;22.80;98.30;;;;;;10382593;28;20227;-73
2022/10/30 12:54:53;;;;;;;11.00;5.90;;;22.90;98.60;;;;;;10388082;28;20263;-72
2022/10/30 13:00:04;;;;;;;14.57;4.80;;;22.90;99.10;;;;;;10390564;28;20227;-73
2022/10/30 13:05:23;;;;;;;13.30;4.90;;;22.80;98.20;;;;;;10385506;28;20229;-73
2022/10/30 13:11:06;;;;;;;10.90;4.00;;;22.70;96.60;;;;;;10385923;28;20243;-72
2022/10/30 13:16:13;;;;;;;13.40;4.40;;;22.60;95.90;;;;;;10373117;28;20238;-71
2022/10/30 13:21:29;;;;;;;14.50;4.43;;;22.50;95.80;;;;;;10386922;28;20696;-73
2022/10/30 13:26:48;;;;;;;14.00;4.23;;;22.50;95.60;;;;;;10391952;28;20228;-71
2022/10/30 13:32:09;;;;;;;11.63;4.03;;;22.40;95.40;;;;;;10383402;28;20688;-72
2022/10/30 13:37:22;;;;;;;9.63;4.17;;;22.40;95.40;;;;;;10384874;28;20216;-73
2022/10/30 13:42:45;;;;;;;12.10;3.77;;;22.30;95.80;;;;;;10411492;28;20846;-72
2022/10/30 13:48:11;;;;;;;12.03;3.67;;;22.30;95.80;;;;;;10390317;28;20230;-72
2022/10/30 13:53:20;;;;;;;10.73;3.90;;;22.30;95.60;;;;;;10385209;28;20289;-73
2022/10/30 13:58:39;;;;;;;9.53;3.50;;;22.20;95.60;;;;;;10386821;28;20215;-72
2022/10/30 14:03:47;;;;;;;9.30;3.40;;;22.10;95.50;;;;;;10385892;28;20322;-72
2022/10/30 14:09:18;;;;;;;8.43;3.37;;;22.10;95.40;;;;;;10399506;28;20252;-72
2022/10/30 14:14:30;;;;;;;13.63;3.93;;;22.00;96.00;;;;;;10418809;28;20318;-72
2022/10/30 14:19:31;;;;;;;9.23;3.93;;;21.90;96.10;;;;;;10394140;28;20306;-72
2022/10/30 14:24:32;;;;;;;9.93;3.63;;;21.80;96.90;;;;;;10420942;28;20702;-73
2022/10/30 14:29:33;;;;;;;9.37;3.57;;;21.70;96.80;;;;;;10391206;28;20310;-72
2022/10/30 14:34:49;;;;;;;9.30;3.60;;;21.50;96.80;;;;;;10380991;28;20309;-71
2022/10/30 14:39:50;;;;;;;10.63;3.60;;;21.40;96.80;;;;;;10381478;28;20241;-72
2022/10/30 14:44:58;;;;;;;9.53;3.50;;;21.30;96.90;;;;;;10380992;28;20251;-72
2022/10/30 14:50:20;;;;;;;10.90;3.53;;;21.20;97.00;;;;;;10388209;28;20696;-71
2022/10/30 14:55:29;;;;;;;9.63;3.47;;;21.10;97.40;;;;;;10428537;28;20219;-71
2022/10/30 15:00:33;;;;;;;10.23;3.93;;;21.00;97.90;;;;;;10383936;28;20727;-72
2022/10/30 15:05:48;;;;;;;10.07;3.57;;;20.90;98.50;;;;;;10386772;28;20699;-72
2022/10/30 15:11:14;;;;;;;13.20;3.63;;;20.80;98.80;;;;;;10379155;28;20290;-72
2022/10/30 15:16:18;;;;;;;12.20;3.73;;;20.70;99.10;;;;;;10390197;28;20691;-73
2022/10/30 15:21:22;;;;;;;9.33;3.80;;;20.50;99.40;;;;;;10392254;28;20706;-71
2022/10/30 15:26:30;;;;;;;11.23;4.23;;;20.30;99.90;;;;;;10403969;28;20212;-71
2022/10/30 15:31:32;;;;;;;12.33;4.57;;;20.10;99.90;;;;;;10451608;28;20256;-71
2022/10/30 15:36:40;;;;;;;10.10;4.10;;;19.90;99.90;;;;;;10423340;28;20219;-72
2022/10/30 15:42:00;;;;;;;7.70;3.60;;;19.70;99.90;;;;;;10395167;28;20375;-74
2022/10/30 15:47:03;;;;;;;9.60;3.90;;;19.50;99.90;;;;;;10398479;28;20273;-74
2022/10/30 15:52:21;;;;;;;9.37;3.77;;;19.40;99.90;;;;;;10397264;28;20338;-72
2022/10/30 15:57:31;;;;;;;8.37;4.47;;;19.10;99.90;;;;;;10392997;28;20756;-72
2022/10/30 16:02:31;;;;;;;7.90;4.63;;;18.90;99.90;;;;;;10406742;28;20251;-74
2022/10/30 16:07:47;;;;;;;9.20;4.70;;;18.60;99.90;;;;;;10422562;28;20214;-73
2022/10/30 16:12:48;;;;;;;9.40;4.77;;;18.40;99.90;;;;;;10424309;28;20309;-71
2022/10/30 16:18:17;;;;;;;11.03;4.57;;;18.20;99.90;;;;;;10385301;28;20230;-73
2022/10/30 16:23:21;;;;;;;8.03;4.30;;;18.00;99.90;;;;;;10394307;28;20246;-72
2022/10/30 16:28:31;;;;;;;11.50;4.67;;;17.70;99.90;;;;;;10392820;28;20896;-72
2022/10/30 16:33:34;;;;;;;6.67;4.27;;;17.50;99.90;;;;;;10387533;28;20247;-73
2022/10/30 16:38:37;;;;;;;14.03;6.33;;;17.30;99.90;;;;;;10389612;28;20255;-72
2022/10/30 16:43:39;;;;;;;12.30;5.40;;;17.10;99.90;;;;;;10397931;28;20228;-71
2022/10/30 16:49:00;;;;;;;7.90;5.40;;;17.00;99.90;;;;;;10392581;28;20222;-71
2022/10/30 16:54:00;;;;;;;14.30;8.27;;;16.90;99.90;;;;;;10384330;28;20688;-71
2022/10/30 16:59:26;;;;;;;10.33;6.33;;;16.70;99.90;;;;;;10391188;28;20234;-71
2022/10/30 17:04:28;;;;;;;10.47;5.70;;;16.60;99.90;;;;;;10429330;28;20325;-70
2022/10/30 17:09:34;;;;;;;13.10;5.80;;;16.60;99.90;;;;;;10401585;28;20275;-70
2022/10/30 17:15:09;;;;;;;12.23;5.90;;;16.50;99.90;;;;;;10432194;28;20238;-71
2022/10/30 17:20:19;;;;;;;15.73;5.90;;;16.40;99.90;;;;;;10432762;28;20302;-71
2022/10/30 17:25:37;;;;;;;15.10;8.27;;;16.40;99.90;;;;;;10395980;28;20296;-71
2022/10/30 17:30:38;;;;;;;15.70;8.93;;;16.30;99.90;;;;;;10396963;28;20230;-71
2022/10/30 17:35:42;;;;;;;10.83;7.67;;;16.20;99.90;;;;;;10412397;28;20226;-72
2022/10/30 17:40:45;;;;;;;15.00;8.10;;;16.20;99.90;;;;;;10437241;28;20231;-72
2022/10/30 17:45:46;;;;;;;17.80;8.47;;;16.10;99.90;;;;;;10434591;28;20221;-70
2022/10/30 17:50:46;;;;;;;12.60;7.00;;;15.90;99.90;;;;;;10425668;28;20260;-71
2022/10/30 17:55:53;;;;;;;15.17;9.03;;;15.90;99.90;;;;;;10381817;28;20218;-71
2022/10/30 18:00:53;;;;;;;12.83;8.83;;;15.90;99.90;;;;;;10398480;28;20216;-70
2022/10/30 18:05:54;;;;;;;18.30;12.03;;;15.90;99.90;;;;;;10389274;28;20727;-70
2022/10/30 18:10:55;;;;;;;20.27;12.67;;;15.90;99.90;;;;;;10379708;28;20609;-70
2022/10/30 18:15:57;;;;;;;16.30;10.13;;;16.00;99.90;;;;;;10396245;28;20216;-69
2022/10/30 18:20:58;;;;;;;18.57;9.27;;;16.00;99.90;;;;;;10389743;28;20230;-71
2022/10/30 18:25:58;;;;;;;17.03;9.50;;;15.90;99.90;;;;;;10383009;28;20684;-70
2022/10/30 18:31:00;;;;;;;14.83;8.10;;;15.80;99.90;;;;;;10400563;28;20235;-70
2022/10/30 18:36:00;;;;;;;14.97;7.57;;;15.70;99.90;;;;;;10401590;28;20217;-70
2022/10/30 18:41:02;;;;;;;11.07;6.23;;;15.60;99.90;;;;;;10395053;28;20600;-71
2022/10/30 18:46:02;;;;;;;10.20;6.30;;;15.50;99.90;;;;;;10395649;28;20234;-71
2022/10/30 18:51:05;;;;;;;14.57;6.87;;;15.50;99.90;;;;;;10395737;28;20425;-71
2022/10/30 18:56:09;;;;;;;12.13;6.70;;;15.40;99.90;;;;;;10406937;28;20311;-71
2022/10/30 19:01:10;;;;;;;16.87;6.83;;;15.40;99.90;;;;;;10404748;28;20776;-70
2022/10/30 19:06:12;;;;;;;12.17;7.00;;;15.40;99.90;;;;;;10425603;28;20231;-73
2022/10/30 19:11:17;;;;;;;11.13;7.10;;;15.30;99.90;;;;;;10410635;28;20231;-70
2022/10/30 19:16:18;;;;;;;12.87;7.43;;;15.20;99.90;;;;;;10400496;28;20224;-72
2022/10/30 19:21:24;;;;;;;12.63;7.07;;;15.10;99.90;;;;;;10412351;28;20310;-71
2022/10/30 19:26:25;;;;;;;10.03;6.50;;;15.10;99.90;;;;;;10438924;28;20212;-71
2022/10/30 19:31:25;;;;;;;13.23;6.87;;;15.00;99.90;;;;;;10420435;28;20627;-71
2022/10/30 19:36:35;;;;;;;9.07;6.57;;;14.80;99.90;;;;;;10394207;28;20216;-71
2022/10/30 19:41:37;;;;;;;15.03;7.13;;;14.80;99.90;;;;;;10394980;28;20276;-71
2022/10/30 19:46:37;;;;;;;12.53;7.33;;;14.70;99.90;;;;;;10403450;28;20688;-71
2022/10/30 19:51:38;;;;;;;12.83;7.07;;;14.60;99.90;;;;;;10400880;28;20216;-70
2022/10/30 19:56:41;;;;;;;12.77;7.90;;;14.50;99.90;;;;;;10398370;28;20334;-70
2022/10/30 20:01:42;;;;;;;14.47;7.17;;;14.50;99.90;;;;;;10401339;28;20224;-71
2022/10/30 20:06:43;;;;;;;15.23;6.70;;;14.50;99.90;;;;;;10394420;28;20292;-70
2022/10/30 20:11:44;;;;;;;14.60;6.97;;;14.40;99.90;;;;;;10406544;28;20315;-71
2022/10/30 20:16:44;;;;;;;10.50;6.93;;;14.30;99.90;;;;;;10392471;28;20222;-70
2022/10/30 20:21:45;;;;;;;16.17;7.80;;;14.30;99.90;;;;;;10404985;28;20221;-75
2022/10/30 20:26:45;;;;;;;12.70;7.60;;;14.20;99.90;;;;;;10419144;28;20215;-75
2022/10/30 20:31:46;;;;;;;14.17;8.10;;;14.10;99.90;;;;;;10447341;28;20691;-76
2022/10/30 20:36:47;;;;;;;12.40;7.47;;;14.00;99.90;;;;;;10421906;28;20260;-75
2022/10/30 20:41:50;;;;;;;10.87;7.40;;;14.00;99.90;;;;;;10408303;28;20228;-75
2022/10/30 20:46:53;;;;;;;14.90;7.40;;;13.90;99.90;;;;;;10386942;28;20234;-78
2022/10/30 20:51:54;;;;;;;14.67;7.57;;;13.90;99.90;;;;;;10403160;28;20316;-75
2022/10/30 20:56:54;;;;;;;17.63;8.03;;;13.80;99.90;;;;;;10386778;28;20296;-74
2022/10/30 21:01:55;;;;;;;14.60;7.87;;;13.80;99.90;;;;;;10395601;28;20251;-74
2022/10/30 21:06:56;;;;;;;15.20;8.80;;;13.70;99.90;;;;;;10385298;28;20220;-77
2022/10/30 21:11:56;;;;;;;12.63;8.20;;;13.60;99.90;;;;;;10407050;28;20315;-75
2022/10/30 21:16:57;;;;;;;10.17;7.27;;;13.60;99.90;;;;;;10391706;28;20234;-72
2022/10/30 21:21:57;;;;;;;16.83;8.00;;;13.50;99.90;;;;;;10412601;28;20228;-76
2022/10/30 21:26:58;;;;;;;9.47;6.97;;;13.50;99.90;;;;;;10426456;28;20547;-76
2022/10/30 21:31:58;;;;;;;11.87;6.77;;;13.50;99.90;;;;;;10424263;28;20232;-74
2022/10/30 21:36:59;;;;;;;12.53;7.20;;;13.50;99.90;;;;;;10392134;28;20228;-75
2022/10/30 21:42:00;;;;;;;17.37;7.30;;;13.40;99.90;;;;;;10401676;28;20226;-75
2022/10/30 21:47:00;;;;;;;11.63;8.03;;;13.40;99.90;;;;;;10396654;28;20216;-75
2022/10/30 21:52:02;;;;;;;16.30;7.93;;;13.40;99.90;;;;;;10391445;28;20778;-79
2022/10/30 21:57:02;;;;;;;10.50;7.30;;;13.40;99.90;;;;;;10396519;28;20233;-80
2022/10/30 22:02:05;;;;;;;19.07;9.43;;;13.40;99.90;;;;;;10399106;28;20684;-79
2022/10/30 22:07:06;;;;;;;16.57;8.40;;;13.40;99.90;;;;;;10393655;28;20716;-80
2022/10/30 22:12:07;;;;;;;13.37;8.13;;;13.50;99.90;;;;;;10404236;28;20224;-74
2022/10/30 22:17:08;;;;;;;16.50;8.67;;;13.40;99.90;;;;;;10414298;28;20221;-73
2022/10/30 22:22:09;;;;;;;12.47;7.60;;;13.40;99.90;;;;;;10397733;28;20597;-74
2022/10/30 22:27:10;;;;;;;16.63;7.83;;;13.40;99.90;;;;;;10388777;28;20909;-73
2022/10/30 22:32:11;;;;;;;11.83;7.70;;;13.50;99.90;;;;;;10393629;28;20300;-75
2022/10/30 22:37:11;;;;;;;13.07;8.43;;;13.40;99.90;;;;;;10385949;28;20227;-74
2022/10/30 22:42:12;;;;;;;17.23;8.40;;;13.40;99.90;;;;;;10392922;28;20822;-77
2022/10/30 22:47:12;;;;;;;16.77;7.90;;;13.50;99.90;;;;;;10385738;28;20316;-74
2022/10/30 22:52:16;;;;;;;13.73;9.40;;;13.50;99.90;;;;;;10386283;28;20225;-75
2022/10/30 22:57:16;;;;;;;12.77;7.53;;;13.40;99.90;;;;;;10383342;28;20218;-73
2022/10/30 23:02:17;;;;;;;13.50;6.57;;;13.30;99.90;;;;;;10399644;28;20871;-75
2022/10/30 23:07:17;;;;;;;14.33;7.50;;;13.30;99.90;;;;;;10390967;28;20212;-75
2022/10/30 23:12:18;;;;;;;11.90;6.90;;;13.20;99.90;;;;;;10395912;28;20244;-76
2022/10/30 23:17:18;;;;;;;14.13;6.77;;;13.10;99.90;;;;;;10392009;28;20638;-74
2022/10/30 23:22:19;;;;;;;18.73;8.60;;;13.00;99.90;;;;;;10389171;28;20316;-74
2022/10/30 23:27:22;;;;;;;13.77;7.53;;;12.90;99.90;;;;;;10384686;28;20223;-74
2022/10/30 23:32:23;;;;;;;10.87;6.43;;;12.80;99.90;;;;;;10389662;28;20217;-76
2022/10/30 23:37:24;;;;;;;11.40;6.93;;;12.70;99.90;;;;;;10398058;28;20224;-76
2022/10/30 23:42:24;;;;;;;11.17;7.07;;;12.60;99.90;;;;;;10395946;28;20225;-75
2022/10/30 23:47:25;;;;;;;14.27;7.63;;;12.60;99.90;;;;;;10399731;28;20642;-74
2022/10/30 23:52:25;;;;;;;9.17;6.50;;;12.60;99.90;;;;;;10406328;28;20228;-81
2022/10/30 23:57:26;;;;;;;11.30;7.13;;;12.60;99.90;;;;;;10377173;28;20255;-81
